KBYI/BYI METAR and TAF weather

Enter ICAO airport designator
Station Type Date Time Source
KBYI METAR 2020/11/27 13:53 UTC NOAA

KBYI 271353Z AUTO 00000KT 10SM OVC031 M03/M06 A3041 RMK AO2 SLP322 T10281056


Station Type Date Time Source
KBYI Decoded METAR 2020/11/27 13:53 UTC NOAA

BURLEY MUNICIPAL AIRPORT, ID, United States (KBYI) 42-33N 113-46W 1264M
Nov 27, 2020 - 08:53 AM EST / 2020.11.27 1353 UTC
Wind: Calm:0
Visibility: 10 mile(s):0
Sky conditions: overcast
Temperature: 27.0 F (-2.8 C)
Dew Point: 21.9 F (-5.6 C)
Relative Humidity: 81%
Pressure (altimeter): 30.41 in. Hg (1029 hPa)
ob: KBYI 271353Z AUTO 00000KT 10SM OVC031 M03/M06 A3041 RMK AO2 SLP322 T10281056
cycle: 14

Station Type Date Time Source
KBYI TAF 2020/11/27 12:42 UTC NOAA

TAF KBYI 271138Z 2712/2812 VRB04KT P6SM BKN025
FM271800 06005KT P6SM SCT025 SCT180
FM280200 06009KT P6SM FEW180

Example: see airport list